Time,TemperatureF,DewpointF,PressureIn,WindDirection,WindDirectionDegrees,WindSpeedMPH,WindSpeedGustMPH,Humidity,HourlyPrecipIn,Conditions,Clouds,dailyrainin,SoftwareType,DateUTC
2013-10-25 00:14:00,76.0,67.0,30.10,NNE,16,0.0,1.0,73,0.00,,,0.01,,2013-10-25 04:14:00,
2013-10-25 00:24:00,75.0,67.0,30.09,NNE,16,0.0,0.0,76,0.00,,,0.01,,2013-10-25 04:24:00,
2013-10-25 00:54:00,74.0,66.0,30.09,NNE,16,0.0,0.0,76,0.00,,,0.01,,2013-10-25 04:54:00,
2013-10-25 01:03:00,74.0,66.0,30.09,NNE,16,0.0,0.0,76,0.00,,,0.01,,2013-10-25 05:03:00,
2013-10-25 09:11:00,72.0,67.0,30.15,NNW,345,0.0,2.0,83,0.00,,,0.01,,2013-10-25 13:11:00,
2013-10-25 09:21:00,73.0,68.0,30.16,North,6,1.0,3.0,83,0.00,,,0.01,,2013-10-25 13:21:00,
2013-10-25 09:42:00,72.0,67.0,30.16,NE,48,0.0,2.0,84,0.00,,,0.01,,2013-10-25 13:42:00,
2013-10-25 09:52:00,73.0,68.0,30.16,East,96,0.0,3.0,83,0.00,,,0.01,,2013-10-25 13:52:00,
2013-10-25 10:22:00,73.0,67.0,30.16,NNW,328,0.0,1.0,82,0.00,,,0.01,,2013-10-25 14:22:00,
2013-10-25 10:42:00,74.0,68.0,30.17,WNW,284,0.0,1.0,82,0.00,,,0.00,,2013-10-25 14:42:00,
2013-10-25 10:52:00,75.0,68.0,30.16,North,1,0.0,2.0,80,0.00,,,0.00,,2013-10-25 14:52:00,
2013-10-25 11:11:00,75.0,68.0,30.16,ENE,71,0.0,0.0,80,0.00,,,0.00,,2013-10-25 15:11:00,
2013-10-25 11:21:00,77.0,70.0,30.15,ENE,58,0.0,1.0,78,0.00,,,0.00,,2013-10-25 15:21:00,
2013-10-25 11:53:00,79.0,69.0,30.15,NE,39,2.0,8.0,72,0.00,,,0.00,,2013-10-25 15:53:00,
2013-10-25 12:23:00,80.0,68.0,30.15,East,91,5.0,9.0,68,0.00,,,0.00,,2013-10-25 16:23:00,
2013-10-25 12:43:00,81.0,69.0,30.15,NNE,25,3.0,11.0,66,0.00,,,0.00,,2013-10-25 16:43:00,
2013-10-25 12:53:00,81.0,68.0,30.15,NE,43,3.0,9.0,65,0.00,,,0.00,,2013-10-25 16:53:00,
2013-10-25 13:23:00,83.0,68.0,30.14,NNE,25,4.0,9.0,60,0.00,,,0.00,,2013-10-25 17:23:00,
2013-10-25 13:52:00,82.0,66.0,30.14,NE,35,5.0,9.0,59,0.00,,,0.00,,2013-10-25 17:52:00,
2013-10-25 14:12:00,82.0,66.0,30.14,NE,38,3.0,8.0,59,0.00,,,0.00,,2013-10-25 18:12:00,
2013-10-25 14:22:00,82.0,66.0,30.13,NE,56,4.0,11.0,59,0.00,,,0.00,,2013-10-25 18:22:00,
2013-10-25 14:52:00,83.0,67.0,30.12,ENE,75,6.0,14.0,59,0.00,,,0.00,,2013-10-25 18:52:00,
2013-10-25 15:11:00,83.0,68.0,30.11,North,6,4.0,12.0,60,0.00,,,0.00,,2013-10-25 19:11:00,
2013-10-25 15:22:00,82.0,67.0,30.11,NNE,24,5.0,10.0,60,0.00,,,0.00,,2013-10-25 19:22:00,
2013-10-25 15:42:00,82.0,66.0,30.11,NE,44,5.0,11.0,59,0.00,,,0.00,,2013-10-25 19:42:00,
2013-10-25 15:52:00,83.0,67.0,30.11,ENE,57,3.0,13.0,58,0.00,,,0.00,,2013-10-25 19:52:00,
2013-10-25 16:22:00,83.0,66.0,30.11,NE,51,5.0,11.0,57,0.00,,,0.00,,2013-10-25 20:22:00,
2013-10-25 16:52:00,82.0,66.0,30.11,NE,56,4.0,13.0,59,0.00,,,0.00,,2013-10-25 20:52:00,
2013-10-25 17:22:00,81.0,67.0,30.12,ENE,74,5.0,11.0,62,0.00,,,0.00,,2013-10-25 21:22:00,
2013-10-25 17:54:00,81.0,66.0,30.13,ENE,58,5.0,15.0,61,0.00,,,0.00,,2013-10-25 21:54:00,
2013-10-25 18:23:00,81.0,66.0,30.12,NE,52,6.0,10.0,60,0.00,,,0.00,,2013-10-25 22:23:00,
2013-10-25 18:42:00,79.0,65.0,30.13,NNE,27,5.0,9.0,62,0.00,,,0.00,,2013-10-25 22:42:00,
2013-10-25 18:52:00,78.0,64.0,30.13,NNE,16,3.0,8.0,63,0.00,,,0.00,,2013-10-25 22:52:00,
2013-10-25 19:23:00,78.0,65.0,30.13,NNE,23,3.0,8.0,65,0.00,,,0.00,,2013-10-25 23:23:00,
2013-10-25 19:52:00,77.0,65.0,30.13,NE,47,3.0,9.0,66,0.00,,,0.00,,2013-10-25 23:52:00,
2013-10-25 20:11:00,77.0,65.0,30.14,NE,42,2.0,5.0,67,0.00,,,0.00,,2013-10-26 00:11:00,
2013-10-25 20:22:00,77.0,65.0,30.14,NNE,21,2.0,10.0,67,0.00,,,0.00,,2013-10-26 00:22:00,
2013-10-25 20:42:00,77.0,66.0,30.14,NNE,22,2.0,9.0,68,0.00,,,0.00,,2013-10-26 00:42:00,
2013-10-25 20:52:00,77.0,65.0,30.14,NNE,20,2.0,7.0,67,0.00,,,0.00,,2013-10-26 00:52:00,
2013-10-25 21:12:00,77.0,65.0,30.14,ENE,68,3.0,8.0,67,0.00,,,0.00,,2013-10-26 01:12:00,
2013-10-25 21:22:00,77.0,65.0,30.15,NE,44,2.0,7.0,67,0.00,,,0.00,,2013-10-26 01:22:00,
2013-10-25 21:52:00,77.0,65.0,30.15,NE,41,2.0,8.0,67,0.00,,,0.00,,2013-10-26 01:52:00,
2013-10-25 22:12:00,77.0,66.0,30.15,NNE,27,1.0,5.0,68,0.00,,,0.00,,2013-10-26 02:12:00,
2013-10-25 22:22:00,77.0,65.0,30.15,ENE,77,2.0,10.0,66,0.00,,,0.00,,2013-10-26 02:22:00,
2013-10-25 22:43:00,77.0,64.0,30.15,NNE,29,2.0,5.0,65,0.00,,,0.00,,2013-10-26 02:43:00,
2013-10-25 22:52:00,77.0,65.0,30.15,NE,43,2.0,7.0,66,0.00,,,0.00,,2013-10-26 02:52:00,
2013-10-25 23:12:00,76.0,64.0,30.15,ESE,106,2.0,5.0,67,0.00,,,0.00,,2013-10-26 03:12:00,
2013-10-25 23:22:00,76.0,65.0,30.15,ENE,77,1.0,4.0,69,0.00,,,0.00,,2013-10-26 03:22:00,
2013-10-25 23:54:00,76.0,65.0,30.16,ESE,116,0.0,4.0,69,0.00,,,0.00,,2013-10-26 03:54:00,